Time;durP1;ratioP1;P1;durP2;ratioP2;P2;SDS_P1;SDS_P2;PMS_P1;PMS_P2;Temp;Humidity;BMP_temperature;BMP_pressure;BME280_temperature;BME280_humidity;BME280_pressure;Samples;Min_cycle;Max_cycle;Signal;HPM_P1;HPM_P2
2023/03/22 00:01:19;;;;;;;1.53;1.20;;;11.40;98.20;;;;;;5054513;28;21049;-77
2023/03/22 00:03:47;;;;;;;1.60;1.30;;;11.40;98.20;;;;;;5066561;28;20539;-77
2023/03/22 00:06:15;;;;;;;1.50;1.10;;;11.40;98.20;;;;;;5056606;28;20477;-77
2023/03/22 00:08:42;;;;;;;1.57;1.10;;;11.40;98.20;;;;;;5075003;28;20834;-77
2023/03/22 00:11:10;;;;;;;1.50;1.00;;;11.40;98.20;;;;;;5042655;28;20496;-77
2023/03/22 00:13:37;;;;;;;1.60;1.10;;;11.40;98.20;;;;;;5064614;28;20564;-77
2023/03/22 00:16:05;;;;;;;1.50;1.10;;;11.40;98.20;;;;;;5054165;28;20536;-80
2023/03/22 00:18:32;;;;;;;1.50;1.10;;;11.40;98.20;;;;;;5059443;28;20465;-78
2023/03/22 00:21:00;;;;;;;1.50;1.10;;;11.40;98.20;;;;;;5041961;28;20482;-77
2023/03/22 00:23:28;;;;;;;1.50;1.10;;;11.40;98.20;;;;;;5066516;28;20477;-78
2023/03/22 00:25:55;;;;;;;1.50;1.10;;;11.40;98.20;;;;;;5046046;28;20836;-78
2023/03/22 00:28:22;;;;;;;1.50;1.10;;;11.40;98.20;;;;;;5068796;28;20461;-78
2023/03/22 00:30:54;;;;;;;1.50;1.10;;;11.40;98.20;;;;;;5041412;28;20455;-78
2023/03/22 00:33:21;;;;;;;1.60;1.20;;;11.40;98.20;;;;;;5064635;28;20478;-82
2023/03/22 00:35:50;;;;;;;1.60;1.40;;;11.30;98.20;;;;;;5053268;28;20522;-80
2023/03/22 00:38:18;;;;;;;1.50;1.00;;;11.30;98.20;;;;;;5073422;28;20461;-78
2023/03/22 00:40:45;;;;;;;1.60;1.20;;;11.30;98.20;;;;;;5057441;28;20578;-79
2023/03/22 00:43:12;;;;;;;1.53;1.10;;;11.30;98.20;;;;;;5056281;28;20473;-80
2023/03/22 00:45:39;;;;;;;1.50;1.00;;;11.30;98.20;;;;;;5064419;28;20857;-79
2023/03/22 00:48:08;;;;;;;1.60;1.20;;;11.20;98.20;;;;;;5066665;28;20535;-77
2023/03/22 00:50:35;;;;;;;1.53;1.10;;;11.20;98.20;;;;;;5068035;28;20466;-78
2023/03/22 00:53:02;;;;;;;1.60;1.30;;;11.20;98.20;;;;;;5066644;28;20892;-79
2023/03/22 00:55:30;;;;;;;1.50;1.00;;;11.10;98.20;;;;;;5059620;28;20451;-79
2023/03/22 00:57:57;;;;;;;1.57;1.10;;;11.10;98.20;;;;;;5056381;28;20532;-79
2023/03/22 01:00:24;;;;;;;1.50;1.10;;;11.00;98.20;;;;;;5058018;28;20494;-79
2023/03/22 01:02:52;;;;;;;1.50;1.10;;;11.00;98.20;;;;;;5056969;28;21041;-79
2023/03/22 01:05:20;;;;;;;1.50;1.10;;;11.00;98.20;;;;;;5055687;28;20462;-79
2023/03/22 01:07:50;;;;;;;1.60;1.10;;;10.90;98.20;;;;;;5065639;28;20476;-78
2023/03/22 01:10:18;;;;;;;1.57;1.13;;;10.80;98.20;;;;;;5060943;28;20472;-77
2023/03/22 01:12:46;;;;;;;1.60;1.33;;;10.80;98.20;;;;;;5055049;28;20497;-81
2023/03/22 01:15:13;;;;;;;1.60;1.20;;;10.70;98.20;;;;;;5054234;28;20473;-78
2023/03/22 01:17:40;;;;;;;1.50;1.03;;;10.70;98.20;;;;;;5065070;28;20786;-79
2023/03/22 01:20:09;;;;;;;1.57;1.10;;;10.60;98.20;;;;;;5062058;28;20978;-79
2023/03/22 01:22:36;;;;;;;1.60;1.30;;;10.60;98.20;;;;;;5067406;28;20485;-79
2023/03/22 01:25:04;;;;;;;1.53;1.10;;;10.50;98.20;;;;;;5070935;28;20948;-79
2023/03/22 01:27:30;;;;;;;1.53;1.10;;;10.50;98.20;;;;;;5052644;28;21002;-79
2023/03/22 01:29:59;;;;;;;1.53;1.17;;;10.40;98.20;;;;;;5062773;28;20457;-82
2023/03/22 01:32:25;;;;;;;1.60;1.20;;;10.40;98.20;;;;;;5049741;28;20499;-76
2023/03/22 01:34:52;;;;;;;1.60;1.20;;;10.30;98.20;;;;;;5053275;28;20454;-79
2023/03/22 01:37:20;;;;;;;1.60;1.20;;;10.30;98.20;;;;;;5051536;28;20477;-77
2023/03/22 01:39:47;;;;;;;1.60;1.27;;;10.30;98.20;;;;;;5060801;28;20512;-77
2023/03/22 01:42:15;;;;;;;1.70;1.53;;;10.30;98.20;;;;;;5050274;28;20987;-78
2023/03/22 01:44:43;;;;;;;1.60;1.20;;;10.20;98.20;;;;;;5061347;28;20467;-77
2023/03/22 01:47:11;;;;;;;1.60;1.13;;;10.20;98.20;;;;;;5058470;28;20488;-78
2023/03/22 01:49:39;;;;;;;1.60;1.20;;;10.10;98.20;;;;;;5064397;28;20454;-77
2023/03/22 01:52:10;;;;;;;1.57;1.10;;;10.10;98.20;;;;;;5056596;28;20504;-80
2023/03/22 01:54:42;;;;;;;1.50;1.10;;;10.10;98.20;;;;;;5068535;28;20470;-78
2023/03/22 01:57:09;;;;;;;1.57;1.10;;;10.10;98.20;;;;;;5059338;28;20479;-78
2023/03/22 01:59:36;;;;;;;1.57;1.20;;;10.10;98.20;;;;;;5064475;28;20956;-79
2023/03/22 02:02:04;;;;;;;1.57;1.10;;;10.10;98.20;;;;;;5048158;28;20481;-80
2023/03/22 02:04:37;;;;;;;1.57;1.10;;;10.00;98.20;;;;;;5064838;28;20481;-79
2023/03/22 02:07:08;;;;;;;1.60;1.20;;;10.00;98.20;;;;;;5051582;28;20473;-78
2023/03/22 02:09:38;;;;;;;1.50;1.20;;;10.00;98.20;;;;;;5052300;28;20544;-79
2023/03/22 02:12:15;;;;;;;1.60;1.30;;;10.00;98.20;;;;;;5057854;28;20477;-79
2023/03/22 02:14:54;;;;;;;1.60;1.20;;;9.90;98.20;;;;;;5069692;28;20463;-79
2023/03/22 02:17:30;;;;;;;1.60;1.30;;;9.90;98.20;;;;;;5051375;28;20482;-79
2023/03/22 02:20:32;;;;;;;1.60;1.20;;;9.90;98.20;;;;;;5048650;28;20480;-80
2023/03/22 02:23:28;;;;;;;1.50;1.10;;;10.00;98.20;;;;;;5063377;28;20663;-79
2023/03/22 02:26:26;;;;;;;1.53;1.10;;;9.90;98.20;;;;;;5058936;28;20457;-78
2023/03/22 02:29:02;;;;;;;1.53;1.20;;;9.90;98.20;;;;;;5076634;28;20462;-78
2023/03/22 02:31:58;;;;;;;2.10;1.83;;;9.90;98.20;;;;;;5052760;28;20496;-78
2023/03/22 02:34:57;;;;;;;1.60;1.20;;;9.90;98.20;;;;;;5055190;28;20962;-79
2023/03/22 02:37:53;;;;;;;1.53;1.10;;;9.90;98.20;;;;;;5055423;28;20481;-79
2023/03/22 02:40:29;;;;;;;1.60;1.10;;;9.90;98.20;;;;;;5031750;28;20482;-79
2023/03/22 02:43:01;;;;;;;1.60;1.20;;;9.90;98.20;;;;;;5066472;28;20483;-76
2023/03/22 02:45:34;;;;;;;1.60;1.23;;;9.90;98.20;;;;;;5069941;28;20481;-76
2023/03/22 02:48:08;;;;;;;1.50;1.10;;;9.90;98.20;;;;;;5068106;28;20476;-76
2023/03/22 02:50:41;;;;;;;1.50;1.10;;;9.80;98.20;;;;;;5055745;28;20798;-78
2023/03/22 02:53:16;;;;;;;1.60;1.23;;;9.80;98.20;;;;;;5066308;28;20513;-77
2023/03/22 02:55:48;;;;;;;1.57;1.20;;;9.80;98.20;;;;;;5069712;28;20841;-77
2023/03/22 02:58:18;;;;;;;1.53;1.10;;;9.80;98.20;;;;;;5053300;28;20465;-78
2023/03/22 03:00:48;;;;;;;1.57;1.20;;;9.80;98.20;;;;;;5058765;28;20493;-77
2023/03/22 03:03:18;;;;;;;1.60;1.20;;;9.80;98.20;;;;;;5036573;28;20501;-76
2023/03/22 03:05:48;;;;;;;1.50;1.10;;;9.80;98.20;;;;;;5045749;28;20469;-76
2023/03/22 03:08:17;;;;;;;1.57;1.20;;;9.70;98.20;;;;;;5057082;28;20529;-78
2023/03/22 03:10:47;;;;;;;1.57;1.10;;;9.70;98.20;;;;;;5057198;28;20461;-77
2023/03/22 03:13:15;;;;;;;1.50;1.10;;;9.70;98.20;;;;;;5052251;28;20833;-80
2023/03/22 03:15:44;;;;;;;1.57;1.20;;;9.70;98.20;;;;;;5067393;28;20944;-77
2023/03/22 03:18:26;;;;;;;1.57;1.20;;;9.70;98.20;;;;;;5061506;28;20549;-76
2023/03/22 03:21:02;;;;;;;1.57;1.20;;;9.70;98.20;;;;;;5039410;28;20490;-77
2023/03/22 03:23:45;;;;;;;1.60;1.20;;;9.60;98.20;;;;;;5059581;28;20531;-77
2023/03/22 03:26:20;;;;;;;1.57;1.10;;;9.60;98.20;;;;;;5045052;28;20945;-76
2023/03/22 03:28:51;;;;;;;1.53;1.20;;;9.50;98.20;;;;;;5058266;28;20473;-77
2023/03/22 03:31:28;;;;;;;1.60;1.10;;;9.50;98.20;;;;;;5048776;28;20475;-78
2023/03/22 03:34:02;;;;;;;1.60;1.20;;;9.50;98.20;;;;;;5054162;28;20478;-77
2023/03/22 03:36:33;;;;;;;1.57;1.20;;;9.50;98.20;;;;;;5045223;28;20472;-76
2023/03/22 03:39:01;;;;;;;1.60;1.20;;;9.40;98.20;;;;;;5061631;28;20458;-76
2023/03/22 03:41:30;;;;;;;1.70;1.43;;;9.40;98.20;;;;;;5046630;28;20484;-75
2023/03/22 03:43:58;;;;;;;1.60;1.30;;;9.40;98.20;;;;;;5051311;28;20483;-76
2023/03/22 03:46:25;;;;;;;1.50;1.10;;;9.40;98.20;;;;;;5039881;28;20562;-76
2023/03/22 03:48:54;;;;;;;1.60;1.20;;;9.30;98.20;;;;;;5061067;28;20462;-76
2023/03/22 03:51:21;;;;;;;1.57;1.20;;;9.40;98.20;;;;;;5048923;28;20473;-76
2023/03/22 03:53:48;;;;;;;1.57;1.23;;;9.40;98.20;;;;;;5054716;28;21164;-77
2023/03/22 03:56:14;;;;;;;1.57;1.20;;;9.30;98.20;;;;;;5040717;28;20484;-80
2023/03/22 03:58:43;;;;;;;1.57;1.10;;;9.30;98.20;;;;;;5055714;28;20465;-77
2023/03/22 04:01:09;;;;;;;1.57;1.20;;;9.30;98.20;;;;;;5037698;28;21200;-76
2023/03/22 04:03:36;;;;;;;1.57;1.10;;;9.30;98.20;;;;;;5061087;28;20783;-77
2023/03/22 04:06:03;;;;;;;1.57;1.20;;;9.40;98.20;;;;;;5042257;28;21012;-77
2023/03/22 04:08:30;;;;;;;1.60;1.30;;;9.40;98.20;;;;;;5055678;28;20466;-77
2023/03/22 04:10:57;;;;;;;1.53;1.20;;;9.40;98.20;;;;;;5039893;28;20463;-77
2023/03/22 04:13:24;;;;;;;1.60;1.20;;;9.40;98.20;;;;;;5069993;28;20487;-76
2023/03/22 04:15:56;;;;;;;1.57;1.10;;;9.40;98.20;;;;;;5024041;28;20953;-79
2023/03/22 04:18:23;;;;;;;1.57;1.10;;;9.40;98.20;;;;;;5064024;28;20490;-76
2023/03/22 04:20:52;;;;;;;1.60;1.20;;;9.40;98.20;;;;;;5039129;28;20493;-76
2023/03/22 04:23:21;;;;;;;1.60;1.30;;;9.40;98.20;;;;;;5058067;28;20487;-76
2023/03/22 04:25:49;;;;;;;1.60;1.20;;;9.50;98.20;;;;;;5033219;28;20463;-77
2023/03/22 04:28:16;;;;;;;1.53;1.20;;;9.50;98.20;;;;;;5064384;28;20551;-78
2023/03/22 04:30:44;;;;;;;1.60;1.20;;;9.50;98.20;;;;;;5047860;28;20462;-77
2023/03/22 04:33:14;;;;;;;1.50;1.20;;;9.50;98.20;;;;;;5056381;28;20486;-78
2023/03/22 04:35:40;;;;;;;1.60;1.20;;;9.50;98.20;;;;;;5048684;28;20532;-78
2023/03/22 04:38:08;;;;;;;1.60;1.20;;;9.50;98.20;;;;;;5053397;28;20486;-78
2023/03/22 04:40:37;;;;;;;1.60;1.20;;;9.50;98.20;;;;;;5046324;28;20559;-77
2023/03/22 04:43:04;;;;;;;1.53;1.10;;;9.50;98.20;;;;;;5056267;28;20892;-77
2023/03/22 04:45:33;;;;;;;1.57;1.20;;;9.40;98.20;;;;;;5049857;28;20989;-77
2023/03/22 04:48:00;;;;;;;1.60;1.30;;;9.40;98.20;;;;;;5052214;28;20469;-77
2023/03/22 04:50:28;;;;;;;1.50;1.10;;;9.40;98.20;;;;;;5046954;28;20454;-76
2023/03/22 04:52:57;;;;;;;1.60;1.30;;;9.40;98.20;;;;;;5052648;28;20485;-80
2023/03/22 04:55:26;;;;;;;1.57;1.10;;;9.40;98.20;;;;;;5052137;28;20966;-79
2023/03/22 04:57:54;;;;;;;1.50;1.10;;;9.40;98.20;;;;;;5054235;28;20855;-80
2023/03/22 05:00:21;;;;;;;1.60;1.20;;;9.40;98.20;;;;;;5052989;28;20485;-83
2023/03/22 05:02:48;;;;;;;1.60;1.20;;;9.40;98.20;;;;;;5053575;28;20840;-79
2023/03/22 05:05:15;;;;;;;1.60;1.30;;;9.40;98.20;;;;;;5061726;28;20514;-78
2023/03/22 05:07:43;;;;;;;1.60;1.20;;;9.50;98.20;;;;;;5053536;28;20979;-79
2023/03/22 05:10:11;;;;;;;1.57;1.20;;;9.50;98.20;;;;;;5052916;28;20861;-79
2023/03/22 05:12:38;;;;;;;1.60;1.20;;;9.50;98.20;;;;;;5058749;28;20552;-78
2023/03/22 05:15:06;;;;;;;1.60;1.20;;;9.50;98.20;;;;;;5042968;28;20454;-78
2023/03/22 05:17:33;;;;;;;1.60;1.43;;;9.50;98.20;;;;;;5059333;28;20843;-78
2023/03/22 05:20:07;;;;;;;1.60;1.20;;;9.60;98.20;;;;;;5042097;28;20455;-77
2023/03/22 05:22:36;;;;;;;1.60;1.30;;;9.60;98.20;;;;;;5056673;28;20558;-79
2023/03/22 05:25:05;;;;;;;1.53;1.20;;;9.60;98.20;;;;;;5042936;28;20458;-79
2023/03/22 05:27:33;;;;;;;1.53;1.20;;;9.60;98.20;;;;;;5057143;28;20480;-79
2023/03/22 05:30:00;;;;;;;1.53;1.10;;;9.60;98.20;;;;;;5045440;28;20778;-77
2023/03/22 05:32:28;;;;;;;1.57;1.13;;;9.70;98.20;;;;;;5056019;28;20481;-78
2023/03/22 05:34:55;;;;;;;1.60;1.20;;;9.70;98.20;;;;;;5048347;28;20493;-78
2023/03/22 05:37:21;;;;;;;1.53;1.20;;;9.80;98.20;;;;;;5054918;28;20483;-78
2023/03/22 05:39:48;;;;;;;1.60;1.30;;;9.90;98.20;;;;;;5056462;28;20477;-79
2023/03/22 05:42:16;;;;;;;1.60;1.10;;;10.00;98.20;;;;;;5052623;28;20481;-78
2023/03/22 05:44:43;;;;;;;1.60;1.20;;;10.00;98.20;;;;;;5045861;28;20465;-78
2023/03/22 05:47:10;;;;;;;1.60;1.27;;;10.10;98.20;;;;;;5053177;28;20482;-79
2023/03/22 05:49:36;;;;;;;1.60;1.20;;;10.10;98.20;;;;;;5048556;28;20458;-78
2023/03/22 05:52:04;;;;;;;1.50;1.20;;;10.10;98.20;;;;;;5049708;28;20478;-78
2023/03/22 05:54:32;;;;;;;1.60;1.30;;;10.10;98.20;;;;;;5045393;28;20485;-78
2023/03/22 05:57:00;;;;;;;1.57;1.13;;;10.20;98.20;;;;;;5039653;28;20485;-78
2023/03/22 05:59:29;;;;;;;1.60;1.20;;;10.20;98.20;;;;;;5047334;28;20551;-78
2023/03/22 06:01:57;;;;;;;1.60;1.20;;;10.30;98.20;;;;;;5034036;28;20530;-77
2023/03/22 06:04:24;;;;;;;1.60;1.10;;;10.30;98.20;;;;;;5038312;28;20576;-78
2023/03/22 06:06:52;;;;;;;1.50;1.10;;;10.30;98.20;;;;;;5030687;28;21024;-78
2023/03/22 06:09:20;;;;;;;4.70;4.40;;;10.40;98.20;;;;;;5042511;28;20501;-78
2023/03/22 06:11:48;;;;;;;1.57;1.00;;;10.40;98.20;;;;;;5044264;28;20479;-78
2023/03/22 06:14:15;;;;;;;1.60;1.20;;;10.40;98.20;;;;;;5054245;28;20489;-78
2023/03/22 06:16:46;;;;;;;3.70;2.70;;;10.40;98.20;;;;;;5045373;28;20465;-78
2023/03/22 06:19:14;;;;;;;1.60;1.20;;;10.50;98.20;;;;;;5056962;28;20457;-78
2023/03/22 06:21:42;;;;;;;1.60;1.20;;;10.50;98.20;;;;;;5049097;28;20481;-78
2023/03/22 06:24:10;;;;;;;1.60;1.10;;;10.50;98.20;;;;;;5057690;28;21000;-79
2023/03/22 06:26:39;;;;;;;1.53;1.10;;;10.50;98.20;;;;;;5043529;28;20559;-78
2023/03/22 06:29:07;;;;;;;1.57;1.10;;;10.50;98.20;;;;;;5060157;28;20454;-78
2023/03/22 06:31:34;;;;;;;1.60;1.20;;;10.60;98.20;;;;;;5050902;28;20776;-78
2023/03/22 06:34:04;;;;;;;1.60;1.50;;;10.60;98.20;;;;;;5057129;28;20486;-79
2023/03/22 06:36:33;;;;;;;1.57;1.20;;;10.60;98.20;;;;;;5038747;28;20474;-79
2023/03/22 06:39:03;;;;;;;1.53;1.10;;;10.70;98.20;;;;;;5051582;28;20545;-78
2023/03/22 06:41:31;;;;;;;1.60;1.20;;;10.70;98.20;;;;;;5040683;28;20854;-79
2023/03/22 06:43:59;;;;;;;1.60;1.10;;;10.80;98.20;;;;;;5045077;28;21083;-78
2023/03/22 06:46:27;;;;;;;1.60;1.23;;;10.80;98.20;;;;;;5028975;28;20559;-78
2023/03/22 06:48:54;;;;;;;1.60;1.30;;;10.90;98.20;;;;;;5035008;28;20467;-78
2023/03/22 06:51:22;;;;;;;1.60;1.13;;;10.90;98.20;;;;;;5026739;28;20478;-78
2023/03/22 06:53:48;;;;;;;1.57;1.00;;;11.00;98.20;;;;;;5042483;28;20493;-77
2023/03/22 06:56:15;;;;;;;1.57;1.10;;;11.00;98.20;;;;;;5024418;28;20482;-78
2023/03/22 06:58:42;;;;;;;1.57;1.10;;;11.10;98.20;;;;;;5040713;28;20462;-78
2023/03/22 07:01:09;;;;;;;1.57;1.10;;;11.20;98.20;;;;;;5025237;28;20490;-77
2023/03/22 07:03:35;;;;;;;1.60;1.10;;;11.30;98.20;;;;;;5047637;28;20482;-77
2023/03/22 07:06:03;;;;;;;1.50;1.00;;;11.40;98.20;;;;;;5039597;28;20466;-78
2023/03/22 07:08:31;;;;;;;1.53;1.10;;;11.50;98.20;;;;;;5064009;28;20461;-78
2023/03/22 07:10:58;;;;;;;1.60;1.20;;;11.60;98.20;;;;;;5038972;28;20921;-78
2023/03/22 07:13:25;;;;;;;1.53;1.10;;;11.60;98.20;;;;;;5055241;28;20479;-79
2023/03/22 07:15:56;;;;;;;1.83;1.73;;;11.60;98.20;;;;;;5044306;28;20458;-78
2023/03/22 07:18:22;;;;;;;1.60;1.10;;;11.60;98.20;;;;;;5061722;28;20517;-77
2023/03/22 07:20:49;;;;;;;1.50;1.10;;;11.70;98.20;;;;;;5036643;28;20463;-78
2023/03/22 07:23:16;;;;;;;1.53;1.07;;;11.80;98.20;;;;;;5063947;28;20488;-78
2023/03/22 07:25:46;;;;;;;1.53;1.10;;;11.90;98.20;;;;;;5050071;28;20466;-78
2023/03/22 07:28:14;;;;;;;1.53;1.10;;;12.00;98.20;;;;;;5039661;28;20505;-78
2023/03/22 07:30:41;;;;;;;1.57;1.10;;;12.20;98.20;;;;;;5047857;28;20470;-78
2023/03/22 07:33:09;;;;;;;1.60;1.10;;;12.40;98.20;;;;;;5055180;28;20878;-78
2023/03/22 07:35:37;;;;;;;1.60;1.00;;;12.50;98.20;;;;;;5052775;28;20466;-78
2023/03/22 07:38:04;;;;;;;1.50;1.00;;;12.60;98.20;;;;;;5055036;28;20524;-78
2023/03/22 07:40:32;;;;;;;1.57;1.00;;;12.70;98.20;;;;;;5051609;28;20477;-78
2023/03/22 07:43:00;;;;;;;1.60;1.40;;;12.80;98.20;;;;;;5054228;28;20572;-78
2023/03/22 07:45:27;;;;;;;1.53;1.10;;;12.90;98.20;;;;;;5051160;28;20474;-78
2023/03/22 07:47:53;;;;;;;1.53;1.00;;;13.00;98.20;;;;;;5051162;28;21087;-78
2023/03/22 07:50:20;;;;;;;1.57;1.10;;;13.10;98.20;;;;;;5052000;28;20466;-78
2023/03/22 07:52:47;;;;;;;1.60;1.10;;;13.10;98.20;;;;;;5056014;28;20975;-78
2023/03/22 07:55:15;;;;;;;1.57;1.00;;;13.10;98.20;;;;;;5051302;28;20453;-79
2023/03/22 07:57:41;;;;;;;1.60;1.10;;;13.10;98.20;;;;;;5050962;28;20485;-78
2023/03/22 08:00:10;;;;;;;1.57;1.07;;;13.10;98.20;;;;;;5064680;28;20479;-77
2023/03/22 08:02:44;;;;;;;1.53;1.00;;;13.10;98.20;;;;;;5057116;28;20997;-78
2023/03/22 08:05:17;;;;;;;1.57;1.10;;;13.20;98.20;;;;;;5054383;28;20554;-78
2023/03/22 08:07:44;;;;;;;1.60;1.10;;;13.40;98.20;;;;;;5058970;28;21037;-78
2023/03/22 08:10:12;;;;;;;1.57;1.10;;;13.60;98.20;;;;;;5056368;28;20475;-78
2023/03/22 08:12:38;;;;;;;1.60;1.13;;;13.70;98.20;;;;;;5056890;28;20573;-78
2023/03/22 08:15:06;;;;;;;1.50;1.00;;;13.80;98.20;;;;;;5054363;28;20841;-78
2023/03/22 08:17:34;;;;;;;1.60;1.10;;;13.90;98.20;;;;;;5050768;28;20481;-78
2023/03/22 08:20:07;;;;;;;1.57;1.10;;;13.90;98.20;;;;;;5055020;28;20948;-78
2023/03/22 08:22:35;;;;;;;1.50;1.10;;;14.00;98.20;;;;;;5050255;28;20474;-78
2023/03/22 08:25:02;;;;;;;1.53;1.00;;;14.00;98.20;;;;;;5046068;28;20858;-78
2023/03/22 08:27:30;;;;;;;1.60;1.00;;;14.10;98.20;;;;;;5053366;28;20481;-78
2023/03/22 08:29:57;;;;;;;1.57;1.00;;;14.20;98.20;;;;;;5052306;28;20527;-78
2023/03/22 08:32:24;;;;;;;1.50;1.00;;;14.20;98.20;;;;;;5049889;28;20513;-78
2023/03/22 08:34:53;;;;;;;1.57;1.00;;;14.30;98.20;;;;;;5057756;28;20538;-77
2023/03/22 08:37:20;;;;;;;1.53;1.00;;;14.30;98.20;;;;;;5057011;28;20508;-78
2023/03/22 08:39:47;;;;;;;1.57;1.03;;;14.30;98.20;;;;;;5052582;28;20556;-79
2023/03/22 08:42:14;;;;;;;1.53;1.10;;;14.30;98.20;;;;;;5047602;28;21098;-78
2023/03/22 08:44:41;;;;;;;1.57;1.10;;;14.30;98.20;;;;;;5044899;28;20488;-78
2023/03/22 08:47:09;;;;;;;1.70;1.40;;;14.20;98.20;;;;;;5044733;28;20480;-78
2023/03/22 08:49:36;;;;;;;1.50;1.00;;;14.20;98.20;;;;;;5051000;28;20497;-78
2023/03/22 08:52:06;;;;;;;1.57;1.00;;;14.20;98.20;;;;;;5044439;28;20500;-78
2023/03/22 08:54:33;;;;;;;1.50;1.00;;;14.10;98.20;;;;;;5055918;28;20486;-77
2023/03/22 08:57:02;;;;;;;1.50;1.10;;;14.10;98.20;;;;;;5040210;28;21022;-77
2023/03/22 08:59:30;;;;;;;1.50;1.00;;;14.00;98.20;;;;;;5053154;28;20545;-77
2023/03/22 09:01:57;;;;;;;1.53;1.10;;;14.00;98.20;;;;;;5047999;28;20562;-78
2023/03/22 09:04:25;;;;;;;1.60;1.10;;;14.00;98.20;;;;;;5055652;28;20897;-78
2023/03/22 09:06:51;;;;;;;1.50;1.00;;;14.10;98.20;;;;;;5050586;28;20480;-78
2023/03/22 09:09:20;;;;;;;1.50;1.00;;;14.10;98.20;;;;;;5058799;28;20477;-78
2023/03/22 09:11:47;;;;;;;1.53;1.10;;;14.20;98.20;;;;;;5050667;28;20472;-78
2023/03/22 09:14:14;;;;;;;1.57;1.10;;;14.40;98.20;;;;;;5055494;28;20515;-78
2023/03/22 09:16:40;;;;;;;1.50;1.10;;;14.50;98.20;;;;;;5052527;28;20488;-78
2023/03/22 09:19:08;;;;;;;1.60;1.10;;;14.70;98.20;;;;;;5065172;28;20496;-77
2023/03/22 09:21:35;;;;;;;1.50;1.00;;;14.70;97.80;;;;;;5046487;28;20518;-77
2023/03/22 09:24:01;;;;;;;1.60;1.20;;;14.70;98.00;;;;;;5062866;28;20544;-78
2023/03/22 09:26:30;;;;;;;1.60;1.10;;;14.70;97.60;;;;;;5047923;28;20752;-77
2023/03/22 09:28:57;;;;;;;1.80;1.23;;;14.60;97.30;;;;;;5058361;28;20554;-77
2023/03/22 09:31:23;;;;;;;1.50;1.00;;;14.60;97.80;;;;;;5043539;28;20575;-77
2023/03/22 09:33:51;;;;;;;1.50;1.00;;;14.70;97.50;;;;;;5055535;28;21015;-78
2023/03/22 09:36:18;;;;;;;1.50;1.00;;;14.80;97.00;;;;;;5042481;28;20487;-77
2023/03/22 09:38:45;;;;;;;1.60;1.10;;;14.90;96.20;;;;;;5059648;28;20457;-78
2023/03/22 09:41:16;;;;;;;1.57;1.07;;;15.10;96.10;;;;;;5045110;28;20473;-78
2023/03/22 09:43:49;;;;;;;1.50;1.00;;;15.30;93.60;;;;;;5056767;28;20653;-78
2023/03/22 09:46:20;;;;;;;1.50;1.03;;;15.50;93.30;;;;;;5048728;28;20991;-77
2023/03/22 09:48:48;;;;;;;1.50;0.90;;;15.50;93.90;;;;;;5054809;28;20964;-77
2023/03/22 09:51:33;;;;;;;1.50;1.00;;;15.50;92.80;;;;;;5047384;28;20526;-77
2023/03/22 09:54:00;;;;;;;1.50;1.10;;;15.50;92.60;;;;;;5062183;28;20485;-77
2023/03/22 09:56:32;;;;;;;1.50;1.03;;;15.50;91.80;;;;;;5045788;28;20484;-78
2023/03/22 09:59:08;;;;;;;1.60;1.20;;;15.50;92.70;;;;;;5062726;28;20461;-77
2023/03/22 10:01:45;;;;;;;1.53;1.10;;;15.60;92.00;;;;;;5051662;28;20878;-79
2023/03/22 10:04:41;;;;;;;1.60;1.10;;;15.70;91.50;;;;;;5063268;28;20818;-77
2023/03/22 10:07:16;;;;;;;1.50;1.00;;;16.00;91.70;;;;;;5055215;28;21037;-78
2023/03/22 10:09:55;;;;;;;1.50;1.00;;;16.20;92.00;;;;;;5061121;28;20465;-77
2023/03/22 10:12:28;;;;;;;1.50;1.00;;;16.40;92.70;;;;;;5049611;28;20475;-79
2023/03/22 10:15:05;;;;;;;1.60;1.20;;;16.40;90.40;;;;;;5057989;28;20856;-78
2023/03/22 10:17:33;;;;;;;1.53;1.10;;;16.40;90.80;;;;;;5055760;28;20488;-78
2023/03/22 10:20:07;;;;;;;1.50;0.90;;;16.60;91.60;;;;;;5054769;28;21066;-79
2023/03/22 10:22:38;;;;;;;1.50;0.90;;;16.80;90.10;;;;;;5049007;28;20488;-79
2023/03/22 10:25:07;;;;;;;1.50;1.00;;;17.00;90.40;;;;;;5055140;28;20473;-79
2023/03/22 10:27:36;;;;;;;1.50;0.90;;;17.10;87.40;;;;;;5059420;28;20477;-78
2023/03/22 10:30:10;;;;;;;1.50;0.90;;;17.30;89.10;;;;;;5057583;28;20472;-78
2023/03/22 10:32:43;;;;;;;1.57;0.97;;;17.40;88.00;;;;;;5062838;28;20476;-79
2023/03/22 10:35:15;;;;;;;1.50;0.90;;;17.30;86.70;;;;;;5038350;28;20486;-78
2023/03/22 10:37:45;;;;;;;1.53;1.00;;;17.10;86.70;;;;;;5040157;28;20485;-78
2023/03/22 10:40:19;;;;;;;1.50;0.90;;;16.90;86.80;;;;;;5034569;28;20760;-79
2023/03/22 10:42:52;;;;;;;1.50;0.93;;;16.80;86.80;;;;;;5042642;28;20588;-79
2023/03/22 10:45:21;;;;;;;1.50;1.00;;;16.60;87.00;;;;;;5031227;28;20466;-79
2023/03/22 10:47:56;;;;;;;1.50;0.93;;;16.50;87.90;;;;;;5040406;28;20543;-79
2023/03/22 10:50:28;;;;;;;1.50;1.00;;;16.40;87.90;;;;;;5051298;28;20510;-79
2023/03/22 10:53:01;;;;;;;1.50;1.00;;;16.40;88.70;;;;;;5041877;28;20486;-79
2023/03/22 10:55:29;;;;;;;1.50;0.90;;;16.30;89.60;;;;;;5052922;28;20476;-79
2023/03/22 10:58:10;;;;;;;1.50;1.00;;;16.40;90.00;;;;;;5045554;28;20923;-80
2023/03/22 11:00:46;;;;;;;1.50;0.90;;;16.40;90.80;;;;;;5060991;28;20457;-80
2023/03/22 11:03:36;;;;;;;1.50;0.90;;;16.50;90.70;;;;;;5043769;28;20601;-79
2023/03/22 11:06:09;;;;;;;1.50;1.00;;;16.40;90.40;;;;;;5045686;28;20461;-79
2023/03/22 11:08:46;;;;;;;1.50;0.90;;;16.30;89.30;;;;;;5063716;28;20469;-80
2023/03/22 11:11:22;;;;;;;1.93;1.73;;;16.30;90.40;;;;;;5047934;28;20730;-79
2023/03/22 11:13:56;;;;;;;1.50;1.10;;;16.20;90.00;;;;;;5064810;28;20492;-79
2023/03/22 11:16:25;;;;;;;1.50;0.90;;;16.10;89.60;;;;;;5045552;28;20546;-74
2023/03/22 11:18:54;;;;;;;1.50;1.00;;;16.10;89.80;;;;;;5057670;28;20995;-76
2023/03/22 11:21:31;;;;;;;1.50;1.00;;;16.00;89.00;;;;;;5044602;28;20945;-77
2023/03/22 11:24:15;;;;;;;1.50;0.90;;;16.00;89.70;;;;;;5053768;28;20964;-79
2023/03/22 11:26:43;;;;;;;1.50;0.90;;;15.90;89.80;;;;;;5048571;28;20472;-78
2023/03/22 11:29:27;;;;;;;1.50;0.97;;;15.90;90.20;;;;;;5058962;28;20526;-80
2023/03/22 11:31:58;;;;;;;1.50;1.00;;;15.90;90.20;;;;;;5050950;28;21245;-78
2023/03/22 11:34:28;;;;;;;1.50;0.90;;;15.90;90.00;;;;;;5059972;28;20478;-79
2023/03/22 11:36:59;;;;;;;1.50;0.90;;;15.90;90.00;;;;;;5049033;28;20532;-79
2023/03/22 11:39:30;;;;;;;1.50;1.00;;;15.80;89.70;;;;;;5061134;28;20458;-78
2023/03/22 11:42:00;;;;;;;1.50;1.00;;;15.70;89.30;;;;;;5052204;28;20581;-79
2023/03/22 11:44:31;;;;;;;1.50;1.03;;;15.70;89.60;;;;;;5054500;28;20563;-79
2023/03/22 11:47:03;;;;;;;1.50;1.00;;;15.50;90.20;;;;;;5043815;28;20493;-79
2023/03/22 11:49:40;;;;;;;1.50;1.00;;;15.40;90.30;;;;;;5043480;28;20470;-79
2023/03/22 11:52:12;;;;;;;1.50;1.00;;;15.40;90.70;;;;;;5050759;28;20577;-79
2023/03/22 11:54:44;;;;;;;1.50;1.00;;;15.30;90.90;;;;;;5057475;28;20514;-78
2023/03/22 11:57:17;;;;;;;1.50;1.00;;;15.30;91.60;;;;;;5049105;28;20481;-78
2023/03/22 11:59:55;;;;;;;1.50;1.07;;;15.30;91.40;;;;;;5059573;28;20547;-78
2023/03/22 12:02:28;;;;;;;1.50;1.00;;;15.40;91.60;;;;;;5051778;28;20481;-79
2023/03/22 12:05:05;;;;;;;1.50;1.10;;;15.50;91.20;;;;;;5055486;28;20516;-78
2023/03/22 12:07:36;;;;;;;1.50;1.00;;;15.50;91.40;;;;;;5040208;28;20485;-78
2023/03/22 12:10:12;;;;;;;1.50;1.00;;;15.60;90.60;;;;;;5028439;28;20467;-78
2023/03/22 12:12:47;;;;;;;1.50;1.00;;;15.60;91.20;;;;;;5022513;28;20532;-79
2023/03/22 12:15:21;;;;;;;1.50;0.90;;;15.70;90.30;;;;;;5035090;28;20992;-78
2023/03/22 12:17:57;;;;;;;1.50;1.00;;;15.70;90.00;;;;;;5028803;28;20511;-78
2023/03/22 12:20:34;;;;;;;1.50;1.00;;;15.70;90.40;;;;;;5036241;28;20531;-79
2023/03/22 12:23:03;;;;;;;1.50;1.00;;;15.60;89.90;;;;;;5032199;28;20532;-78
2023/03/22 12:25:34;;;;;;;1.50;1.00;;;15.60;90.60;;;;;;5034052;28;20467;-78
2023/03/22 12:28:07;;;;;;;1.50;1.00;;;15.50;90.40;;;;;;5022923;28;20475;-78
2023/03/22 12:30:41;;;;;;;1.50;1.00;;;15.50;91.10;;;;;;5032349;28;20969;-78
2023/03/22 12:33:18;;;;;;;1.50;1.00;;;15.40;90.40;;;;;;5026941;28;21089;-78
2023/03/22 12:35:47;;;;;;;1.50;0.90;;;15.40;91.10;;;;;;5032989;28;20466;-78
2023/03/22 12:38:28;;;;;;;1.50;1.00;;;15.30;91.50;;;;;;5041996;28;20497;-78
2023/03/22 12:40:57;;;;;;;1.50;1.00;;;15.30;91.50;;;;;;5042462;28;20473;-79
2023/03/22 12:43:40;;;;;;;1.50;1.00;;;15.20;91.00;;;;;;5051281;28;20490;-78
2023/03/22 12:46:15;;;;;;;1.50;1.00;;;15.10;91.80;;;;;;5039945;28;20569;-78
2023/03/22 12:48:49;;;;;;;1.50;1.00;;;15.10;92.50;;;;;;5038672;28;20475;-77
2023/03/22 12:51:16;;;;;;;1.50;1.10;;;15.00;93.90;;;;;;5014583;28;20478;-76
2023/03/22 12:53:46;;;;;;;1.60;1.20;;;15.00;95.10;;;;;;5024452;28;20481;-76
2023/03/22 12:56:16;;;;;;;1.50;1.10;;;14.90;95.90;;;;;;5021844;28;20471;-76
2023/03/22 12:58:47;;;;;;;1.50;1.00;;;14.80;96.50;;;;;;5030755;28;20744;-77
2023/03/22 13:01:23;;;;;;;1.50;1.10;;;14.60;96.70;;;;;;5020626;28;20611;-77
2023/03/22 13:03:56;;;;;;;1.50;0.90;;;14.50;96.60;;;;;;5035348;28;20529;-79
2023/03/22 13:06:33;;;;;;;1.50;1.07;;;14.40;97.50;;;;;;5022951;28;20517;-78